Honolulu, HI

5:58 PM HST on June 29, 2015 (GMT -1000)
Pacific Heights | | Change Station
CLOSE
Current Station
Personal Weather Station
Location: Honolulu, HI
Elevation: 528 ft
Nearby Weather Stations

Elev 528 ft 21.33 °N, 157.84 °W | Updated 3 seconds ago

Overcast
Overcast
78.4 °F
Feels Like 81 °F
N
0.9
Wind Variable Wind from ENE
Gusts 3.0 mph

Today
High -- | Low -- °F
--% Chance of Precip.
Yesterday
High -- | Low -- °F
Precip. -- in
5:52 AM 7:17 PM
Waxing Gibbous, 95% visible
Pressure 29.90 in
Visibility -9999.0 miles
Clouds Few 1800 ft
Scattered Clouds 2400 ft
Mostly Cloudy 3000 ft
Heat Index 81 °F
Dew Point 71 °F
Humidity 78%
Rainfall in
Snow Depth Not available.
UV 1 out of 12
Pollen Not available.
Air Quality Not available.
Flu Activity Local Activity
SPECI PHNG 300355Z 11006KT -RA FEW018 SCT024 BKN030 26/22 A2990 RMK AO2 P0000 $

More Conditions Fewer Conditions

Pressure 29.90 in
Visibility -9999.0 miles
Clouds Few 1800 ft
Scattered Clouds 2400 ft
Mostly Cloudy 3000 ft
Heat Index 81 °F
Dew Point 71 °F
Humidity 78%
Rainfall in
Snow Depth Not available.
UV 1 out of 12
Pollen Not available.
Air Quality Not available.
Flu Activity Local Activity
SPECI PHNG 300355Z 11006KT -RA FEW018 SCT024 BKN030 26/22 A2990 RMK AO2 P0000 $

More Conditions Fewer Conditions

10-Day Weather Forecast

×

Almanac

Astronomy

Jun. 29, 2015 Rise Set
Actual Time
Civil Twilight
Nautical Twilight
Astronomical Twilight
Moon
Length of Visible Light
Length of Day
Tomorrow will be .
, % of the Moon is Illuminated

Today's Extremes

State Highs State Lows

Community

WunderPhotos

Upload Photos

1,833,956 photos uploaded!

WunderBlogs® & News

Nearby

Air Quality

  Air Quality AQ Index Pollutant
Not available.

Snow Depth

Station Depth Elevation

Earthquake Activity

City Distance Mag. Time & Date
Minimum magnitude displayed is 2.5.

Coastal Water Temperatures

Place Temperature

Stations

Nearby Weather Stations

Station Location Temp. Windchill Dew Point Humidity Wind Precip. Elev Updated Type